Time;durP1;ratioP1;P1;durP2;ratioP2;P2;SDS_P1;SDS_P2;PMS_P1;PMS_P2;Temp;Humidity;BMP_temperature;BMP_pressure;BME280_temperature;BME280_humidity;BME280_pressure;Samples;Min_cycle;Max_cycle;Signal;HPM_P1;HPM_P2
2022/01/05 00:01:08;;;;;;;4.15;1.55;;;7.90;77.90;;;;;;4954657;28;20210;-63
2022/01/05 00:03:35;;;;;;;5.72;1.65;;;7.90;77.70;;;;;;4954251;28;20428;-63
2022/01/05 00:06:02;;;;;;;3.78;1.70;;;7.90;77.70;;;;;;4953091;28;20037;-63
2022/01/05 00:08:28;;;;;;;5.13;1.83;;;7.90;77.60;;;;;;4951106;28;20028;-63
2022/01/05 00:10:54;;;;;;;4.07;1.30;;;7.90;77.80;;;;;;4956460;28;20047;-63
2022/01/05 00:13:21;;;;;;;4.78;1.58;;;7.80;77.80;;;;;;4954531;28;20086;-63
2022/01/05 00:15:46;;;;;;;4.53;1.63;;;7.80;77.90;;;;;;4954525;28;20446;-63
2022/01/05 00:18:12;;;;;;;3.83;1.25;;;7.90;78.60;;;;;;4954376;28;20031;-63
2022/01/05 00:20:38;;;;;;;5.47;1.50;;;7.90;77.90;;;;;;4949058;28;20028;-63
2022/01/05 00:23:04;;;;;;;3.67;1.48;;;7.90;77.70;;;;;;4954473;28;20084;-63
2022/01/05 00:25:29;;;;;;;4.63;1.45;;;7.80;77.90;;;;;;4954300;28;20476;-63
2022/01/05 00:27:55;;;;;;;4.70;1.27;;;7.80;77.80;;;;;;4952724;28;20114;-63
2022/01/05 00:30:21;;;;;;;4.03;1.10;;;7.80;77.90;;;;;;4954337;28;20129;-63
2022/01/05 00:32:46;;;;;;;3.03;1.45;;;7.70;78.00;;;;;;4951268;28;20092;-63
2022/01/05 00:35:12;;;;;;;5.22;1.30;;;7.70;77.90;;;;;;4954180;28;20024;-63
2022/01/05 00:37:38;;;;;;;8.63;1.52;;;7.70;77.80;;;;;;4954655;28;20544;-63
2022/01/05 00:40:06;;;;;;;5.43;1.40;;;7.60;77.80;;;;;;4954282;28;20033;-63
2022/01/05 00:42:32;;;;;;;5.80;1.13;;;7.60;78.10;;;;;;4954155;28;20046;-63
2022/01/05 00:44:58;;;;;;;4.28;1.17;;;7.60;78.10;;;;;;4951561;28;20438;-63
2022/01/05 00:47:24;;;;;;;5.43;1.58;;;7.50;78.10;;;;;;4944581;28;20048;-63
2022/01/05 00:49:50;;;;;;;6.13;1.70;;;7.50;78.30;;;;;;4954472;28;20027;-63
2022/01/05 00:52:15;;;;;;;7.72;1.48;;;7.50;78.60;;;;;;4952380;28;20034;-63
2022/01/05 00:54:41;;;;;;;5.25;1.30;;;7.50;78.50;;;;;;4954088;28;20098;-63
2022/01/05 00:57:07;;;;;;;4.65;1.00;;;7.40;78.30;;;;;;4953907;28;20026;-63
2022/01/05 00:59:33;;;;;;;3.40;0.82;;;7.40;78.20;;;;;;4950170;28;20567;-62
2022/01/05 01:01:59;;;;;;;4.90;1.42;;;7.30;78.40;;;;;;4955977;28;20383;-63
2022/01/05 01:04:24;;;;;;;4.55;1.00;;;7.40;79.00;;;;;;4954076;28;20035;-63
2022/01/05 01:06:50;;;;;;;3.63;1.00;;;7.40;79.00;;;;;;4953690;28;20042;-63
2022/01/05 01:09:16;;;;;;;4.93;1.08;;;7.40;78.60;;;;;;4954006;28;20118;-63
2022/01/05 01:11:42;;;;;;;4.70;1.20;;;7.30;78.60;;;;;;4950286;28;20118;-63
2022/01/05 01:14:08;;;;;;;2.83;1.00;;;7.30;79.00;;;;;;4954825;28;20558;-63
2022/01/05 01:16:34;;;;;;;5.78;1.25;;;7.30;78.80;;;;;;4953796;28;20039;-63
2022/01/05 01:18:59;;;;;;;5.88;1.15;;;7.30;79.00;;;;;;4953726;28;20031;-63
2022/01/05 01:21:25;;;;;;;6.30;1.10;;;7.30;79.10;;;;;;4952200;28;20042;-63
2022/01/05 01:23:55;;;;;;;6.70;1.10;;;7.30;79.00;;;;;;4951386;28;20084;-63
2022/01/05 01:26:22;;;;;;;5.05;1.15;;;7.30;79.10;;;;;;4951579;28;20051;-63
2022/01/05 01:28:48;;;;;;;4.38;1.00;;;7.40;79.20;;;;;;4953616;28;20135;-63
2022/01/05 01:31:14;;;;;;;3.92;0.88;;;7.40;79.20;;;;;;4953546;28;20499;-63
2022/01/05 01:33:40;;;;;;;2.92;0.80;;;7.30;79.10;;;;;;4952548;28;20496;-63
2022/01/05 01:36:05;;;;;;;5.38;0.75;;;7.40;79.10;;;;;;4952822;28;20480;-63
2022/01/05 01:38:31;;;;;;;4.28;0.70;;;7.30;78.90;;;;;;4949918;28;20389;-63
2022/01/05 01:40:57;;;;;;;3.97;1.10;;;7.30;79.00;;;;;;4954299;28;20038;-63
2022/01/05 01:54:00;;;;;;;3.45;0.75;;;7.30;79.00;;;;;;4963937;28;20109;-63
2022/01/05 01:56:31;;;;;;;5.25;0.80;;;7.30;78.80;;;;;;4963528;28;20398;-62
2022/01/05 01:58:57;;;;;;;3.95;0.80;;;7.30;78.90;;;;;;4955497;28;20042;-63
2022/01/05 02:01:22;;;;;;;2.45;0.70;;;7.20;78.60;;;;;;4953206;28;20484;-63
2022/01/05 02:03:48;;;;;;;3.35;0.60;;;7.20;79.50;;;;;;4953264;28;20094;-63
2022/01/05 02:06:14;;;;;;;3.63;0.50;;;7.20;78.70;;;;;;4952965;28;20049;-63
2022/01/05 02:08:39;;;;;;;2.30;0.80;;;7.20;78.80;;;;;;4949290;28;20024;-63
2022/01/05 02:11:07;;;;;;;4.90;0.88;;;7.10;78.50;;;;;;4954590;28;20043;-63
2022/01/05 02:13:34;;;;;;;4.13;0.70;;;7.10;78.50;;;;;;4953615;28;20023;-63
2022/01/05 02:15:59;;;;;;;1.80;0.70;;;7.10;78.40;;;;;;4953059;28;20055;-62
2022/01/05 02:21:12;;;;;;;3.35;0.63;;;7.10;78.10;;;;;;4950400;28;20051;-63
2022/01/05 02:23:38;;;;;;;1.50;0.70;;;7.00;77.90;;;;;;4934138;28;20121;-63
2022/01/05 02:26:06;;;;;;;1.17;0.50;;;7.00;78.40;;;;;;4953391;28;20039;-63
2022/01/05 02:28:32;;;;;;;2.28;0.60;;;7.10;78.20;;;;;;4955214;28;20439;-63
2022/01/05 02:30:57;;;;;;;2.80;0.45;;;7.10;78.10;;;;;;4956178;28;20033;-63
2022/01/05 02:33:24;;;;;;;3.72;0.80;;;7.10;78.00;;;;;;4955699;28;20543;-63
2022/01/05 02:35:51;;;;;;;3.00;0.68;;;7.20;78.20;;;;;;4953663;28;20031;-63
2022/01/05 02:38:18;;;;;;;4.00;0.70;;;7.20;77.90;;;;;;4954815;28;20043;-63
2022/01/05 02:40:44;;;;;;;5.35;0.73;;;7.10;77.80;;;;;;4957445;28;20067;-63
2022/01/05 02:43:10;;;;;;;2.03;0.52;;;7.10;77.80;;;;;;4956007;28;20048;-63
2022/01/05 02:45:35;;;;;;;7.38;1.00;;;7.00;77.80;;;;;;4955955;28;20031;-63
2022/01/05 02:48:01;;;;;;;3.40;0.70;;;7.00;78.30;;;;;;4954726;28;20061;-63
2022/01/05 02:50:26;;;;;;;3.28;0.60;;;7.10;78.40;;;;;;4952663;28;20028;-63
2022/01/05 02:52:52;;;;;;;3.40;0.80;;;7.10;78.40;;;;;;4957897;28;20035;-63
2022/01/05 02:55:18;;;;;;;8.73;1.10;;;7.20;78.30;;;;;;4956011;28;20084;-63
2022/01/05 02:57:43;;;;;;;2.67;0.77;;;7.20;78.60;;;;;;4955847;28;20066;-63
2022/01/05 03:00:12;;;;;;;3.50;0.82;;;7.30;78.10;;;;;;4955835;28;20027;-63
2022/01/05 03:02:37;;;;;;;5.82;0.80;;;7.20;78.10;;;;;;4951466;28;20066;-63
2022/01/05 03:05:04;;;;;;;3.35;0.70;;;7.20;78.00;;;;;;4957638;28;20023;-63
2022/01/05 03:07:29;;;;;;;5.20;0.90;;;7.20;78.40;;;;;;4955510;28;20039;-63
2022/01/05 03:09:55;;;;;;;3.15;0.52;;;7.20;78.40;;;;;;4955765;28;20038;-62
2022/01/05 03:12:21;;;;;;;2.50;0.80;;;7.30;78.10;;;;;;4955367;28;20549;-63
2022/01/05 03:14:46;;;;;;;5.65;1.02;;;7.20;77.70;;;;;;4952725;28;20106;-63
2022/01/05 03:17:12;;;;;;;3.15;0.70;;;7.20;78.30;;;;;;4955257;28;20102;-63
2022/01/05 03:19:37;;;;;;;3.88;0.90;;;7.20;78.10;;;;;;4956202;28;20033;-62
2022/01/05 03:22:03;;;;;;;5.85;0.68;;;7.10;78.40;;;;;;4955432;28;20133;-63
2022/01/05 03:24:29;;;;;;;3.38;0.60;;;7.10;77.90;;;;;;4955478;28;20035;-63
2022/01/05 03:26:55;;;;;;;4.82;0.77;;;7.00;78.00;;;;;;4953527;28;20403;-62
2022/01/05 03:29:20;;;;;;;5.00;0.80;;;7.00;78.40;;;;;;4953052;28;20027;-63
2022/01/05 03:31:46;;;;;;;5.53;0.90;;;7.00;78.10;;;;;;4954769;28;20023;-62
2022/01/05 03:34:17;;;;;;;3.55;0.90;;;7.00;78.20;;;;;;4955273;28;20434;-63
2022/01/05 03:36:43;;;;;;;4.18;1.05;;;7.00;78.50;;;;;;4954811;28;20023;-63
2022/01/05 03:39:09;;;;;;;4.32;0.80;;;7.00;78.20;;;;;;4954942;28;20076;-62
2022/01/05 03:41:34;;;;;;;4.50;1.08;;;6.90;78.20;;;;;;4951156;28;20142;-62
2022/01/05 03:44:00;;;;;;;3.28;1.00;;;6.90;78.80;;;;;;4957111;28;20476;-62
2022/01/05 03:46:26;;;;;;;4.15;0.80;;;7.00;78.40;;;;;;4954642;28;20050;-63
2022/01/05 03:48:51;;;;;;;6.03;1.05;;;7.00;78.60;;;;;;4955143;28;20028;-63
2022/01/05 03:51:17;;;;;;;3.45;1.20;;;7.00;78.70;;;;;;4954830;28;20030;-63
2022/01/05 03:53:43;;;;;;;4.13;0.70;;;7.00;78.50;;;;;;4951750;28;20073;-63
2022/01/05 03:56:08;;;;;;;3.85;0.85;;;7.00;78.50;;;;;;4955535;28;20411;-63
2022/01/05 03:58:34;;;;;;;5.35;1.02;;;7.10;78.70;;;;;;4953952;28;20038;-63
2022/01/05 04:01:00;;;;;;;2.28;0.90;;;7.10;78.50;;;;;;4954696;28;20031;-63
2022/01/05 04:03:25;;;;;;;4.00;1.08;;;7.10;78.50;;;;;;4954711;28;20122;-63
2022/01/05 04:05:51;;;;;;;2.95;1.08;;;7.10;78.20;;;;;;4952535;28;20035;-63
2022/01/05 04:08:17;;;;;;;2.78;0.70;;;7.10;78.20;;;;;;4953676;28;20469;-64
2022/01/05 04:10:42;;;;;;;2.13;0.50;;;7.10;78.30;;;;;;4956032;28;20111;-63
2022/01/05 04:13:08;;;;;;;4.10;0.82;;;7.20;78.40;;;;;;4954593;28;20578;-63
2022/01/05 04:15:34;;;;;;;2.97;0.73;;;7.20;78.40;;;;;;4954319;28;20076;-63
2022/01/05 04:17:59;;;;;;;3.65;0.80;;;7.20;78.50;;;;;;4953614;28;20019;-63
2022/01/05 04:20:25;;;;;;;4.63;0.90;;;7.20;78.30;;;;;;4951542;28;20362;-63
2022/01/05 04:22:50;;;;;;;1.70;0.50;;;7.30;78.30;;;;;;4956552;28;20031;-63
2022/01/05 04:25:16;;;;;;;4.30;0.82;;;7.30;78.10;;;;;;4954392;28;20092;-63
2022/01/05 04:27:42;;;;;;;2.70;0.57;;;7.30;78.40;;;;;;4953263;28;20411;-62
2022/01/05 04:30:10;;;;;;;3.10;0.57;;;7.30;78.00;;;;;;4953714;28;20027;-63
2022/01/05 04:32:35;;;;;;;2.95;0.65;;;7.40;77.90;;;;;;4935180;28;20028;-63
2022/01/05 04:35:02;;;;;;;3.30;0.60;;;7.30;77.50;;;;;;4956393;28;20503;-63
2022/01/05 04:37:27;;;;;;;4.22;0.70;;;7.40;77.70;;;;;;4954320;28;20046;-63
2022/01/05 04:39:53;;;;;;;2.55;0.60;;;7.30;77.60;;;;;;4954239;28;20023;-63
2022/01/05 04:42:19;;;;;;;4.03;0.80;;;7.40;78.00;;;;;;4954397;28;20491;-63
2022/01/05 04:44:45;;;;;;;4.00;0.70;;;7.30;77.30;;;;;;4950856;28;20035;-63
2022/01/05 04:47:12;;;;;;;2.25;0.60;;;7.30;77.50;;;;;;4954412;28;20035;-63
2022/01/05 04:49:38;;;;;;;3.25;0.70;;;7.20;77.20;;;;;;4954604;28;20027;-63
2022/01/05 04:52:04;;;;;;;2.80;0.80;;;7.10;77.40;;;;;;4953643;28;20079;-63
2022/01/05 04:54:30;;;;;;;2.28;0.60;;;7.10;77.60;;;;;;4954066;28;20061;-63
2022/01/05 04:56:55;;;;;;;3.95;1.00;;;7.10;78.00;;;;;;4952632;28;20023;-63
2022/01/05 04:59:21;;;;;;;5.38;0.75;;;7.10;77.60;;;;;;4951571;28;20034;-63
2022/01/05 05:01:46;;;;;;;3.55;0.77;;;7.10;77.70;;;;;;4955850;28;20065;-63
2022/01/05 05:04:12;;;;;;;3.25;0.65;;;7.00;77.60;;;;;;4953974;28;20110;-63
2022/01/05 05:06:38;;;;;;;3.22;0.85;;;7.00;77.60;;;;;;4953714;28;20093;-63
2022/01/05 05:09:03;;;;;;;3.97;0.70;;;7.00;77.90;;;;;;4953209;28;20466;-63
2022/01/05 05:11:29;;;;;;;4.97;0.90;;;7.00;77.60;;;;;;4950103;28;20098;-63
2022/01/05 05:13:54;;;;;;;4.38;0.80;;;6.90;77.80;;;;;;4955514;28;20027;-63
2022/01/05 05:16:20;;;;;;;4.18;0.80;;;7.10;78.70;;;;;;4954027;28;20081;-63
2022/01/05 05:18:46;;;;;;;4.28;0.55;;;7.10;77.70;;;;;;4953756;28;20036;-63
2022/01/05 05:21:11;;;;;;;3.10;0.60;;;7.00;77.10;;;;;;4953638;28;20499;-63
2022/01/05 05:23:37;;;;;;;2.97;0.80;;;6.90;77.40;;;;;;4949611;28;20058;-63
2022/01/05 05:26:03;;;;;;;2.60;0.60;;;6.90;77.60;;;;;;4955546;28;20097;-63
2022/01/05 05:28:29;;;;;;;2.28;0.60;;;6.90;77.70;;;;;;4953180;28;20034;-63
2022/01/05 05:30:54;;;;;;;3.50;0.65;;;7.00;78.00;;;;;;4953553;28;20035;-63
2022/01/05 05:33:20;;;;;;;4.70;0.70;;;7.00;77.50;;;;;;4953613;28;20110;-63
2022/01/05 05:35:45;;;;;;;3.13;0.73;;;7.00;77.80;;;;;;4950637;28;20073;-63
2022/01/05 05:38:12;;;;;;;2.42;0.68;;;7.00;77.50;;;;;;4953714;28;20508;-63
2022/01/05 05:40:38;;;;;;;3.20;0.60;;;7.00;77.80;;;;;;4954210;28;20023;-63
2022/01/05 05:43:04;;;;;;;3.55;0.80;;;7.00;77.70;;;;;;4953170;28;20097;-63
2022/01/05 05:45:30;;;;;;;3.08;0.70;;;7.00;77.80;;;;;;4953406;28;20118;-63
2022/01/05 05:47:55;;;;;;;4.95;0.65;;;7.00;77.40;;;;;;4951650;28;20538;-63
2022/01/05 05:50:22;;;;;;;2.45;0.60;;;7.00;77.70;;;;;;4950966;28;20027;-64
2022/01/05 05:52:48;;;;;;;4.63;0.63;;;7.00;77.50;;;;;;4955195;28;20126;-63
2022/01/05 05:55:13;;;;;;;2.30;0.73;;;6.90;77.60;;;;;;4953248;28;20527;-63
2022/01/05 05:57:39;;;;;;;2.40;0.60;;;7.00;78.50;;;;;;4951735;28;20434;-64
2022/01/05 06:00:06;;;;;;;3.72;0.77;;;7.00;77.10;;;;;;4952784;28;20495;-63
2022/01/05 06:02:32;;;;;;;2.35;0.60;;;6.90;77.60;;;;;;4951298;28;20085;-64
2022/01/05 06:04:58;;;;;;;4.22;1.10;;;6.90;77.50;;;;;;4958682;28;20041;-64
2022/01/05 06:07:24;;;;;;;3.17;0.95;;;6.90;77.40;;;;;;4956350;28;20122;-64
2022/01/05 06:09:49;;;;;;;4.70;1.15;;;6.90;77.20;;;;;;4956495;28;20072;-64
2022/01/05 06:12:15;;;;;;;3.03;1.00;;;6.90;77.40;;;;;;4954806;28;20082;-64
2022/01/05 06:14:40;;;;;;;4.05;0.90;;;6.90;77.30;;;;;;4952860;28;22153;-64
2022/01/05 06:17:06;;;;;;;3.88;1.15;;;6.80;77.20;;;;;;4957783;28;20493;-66
2022/01/05 06:19:32;;;;;;;3.25;0.75;;;6.90;77.60;;;;;;4956504;28;20027;-64
2022/01/05 06:21:58;;;;;;;2.78;0.75;;;6.90;77.60;;;;;;4956312;28;20039;-64
2022/01/05 06:24:24;;;;;;;3.72;0.98;;;6.90;77.70;;;;;;4956393;28;20415;-64
2022/01/05 06:26:52;;;;;;;3.38;1.00;;;6.90;77.70;;;;;;4953188;28;20392;-64
2022/01/05 06:29:19;;;;;;;5.45;0.77;;;7.00;78.00;;;;;;4954740;28;20027;-64
2022/01/05 06:31:45;;;;;;;3.10;0.88;;;6.90;78.00;;;;;;4957663;28;20407;-64
2022/01/05 06:34:11;;;;;;;2.80;0.70;;;7.00;78.30;;;;;;4956232;28;20032;-64
2022/01/05 06:36:36;;;;;;;5.05;0.60;;;7.00;78.10;;;;;;4956241;28;20034;-64
2022/01/05 06:39:03;;;;;;;2.97;0.60;;;7.00;77.70;;;;;;4955308;28;20109;-64
2022/01/05 06:41:29;;;;;;;5.95;0.70;;;7.00;78.00;;;;;;4952134;28;20035;-64
2022/01/05 06:43:54;;;;;;;4.20;0.90;;;7.10;78.60;;;;;;4957905;28;20034;-64
2022/01/05 06:46:20;;;;;;;3.65;0.50;;;7.10;77.70;;;;;;4955854;28;20047;-64
2022/01/05 06:48:45;;;;;;;2.63;0.50;;;7.10;77.30;;;;;;4954788;28;20035;-64
2022/01/05 06:51:11;;;;;;;4.75;1.00;;;7.00;77.20;;;;;;4955879;28;20029;-64
2022/01/05 06:53:37;;;;;;;2.97;0.65;;;7.10;77.80;;;;;;4951892;28;20400;-64
2022/01/05 06:56:04;;;;;;;3.83;0.70;;;7.10;77.70;;;;;;4964307;28;20031;-64
2022/01/05 06:58:30;;;;;;;1.65;0.47;;;7.20;78.00;;;;;;4955896;28;20111;-64
2022/01/05 07:00:56;;;;;;;4.47;0.50;;;7.20;77.50;;;;;;4955731;28;20106;-64
2022/01/05 07:03:22;;;;;;;1.63;0.40;;;7.20;77.60;;;;;;4955773;28;20054;-64
2022/01/05 07:05:47;;;;;;;4.50;0.93;;;7.20;77.60;;;;;;4952759;28;20081;-64
2022/01/05 07:08:13;;;;;;;2.45;0.95;;;7.30;78.20;;;;;;4955631;28;20115;-64
2022/01/05 07:10:39;;;;;;;3.67;0.73;;;7.30;77.60;;;;;;4987073;28;20146;-64
2022/01/05 07:13:05;;;;;;;1.10;0.50;;;7.30;77.50;;;;;;4954858;28;20049;-64
2022/01/05 07:15:30;;;;;;;3.28;0.60;;;7.30;77.40;;;;;;4955600;28;20527;-64
2022/01/05 07:17:56;;;;;;;1.88;0.65;;;7.30;77.70;;;;;;4953858;28;20519;-64
2022/01/05 07:20:21;;;;;;;3.88;0.55;;;7.30;77.70;;;;;;4953007;28;20515;-64
2022/01/05 07:22:47;;;;;;;3.40;0.65;;;7.30;77.60;;;;;;4957340;28;20361;-64
2022/01/05 07:25:13;;;;;;;2.38;0.60;;;7.30;78.00;;;;;;4955128;28;20046;-64
2022/01/05 07:27:39;;;;;;;4.68;0.82;;;7.30;78.00;;;;;;4955337;28;20047;-64
2022/01/05 07:30:06;;;;;;;3.95;0.60;;;7.20;77.50;;;;;;4954834;28;20116;-64
2022/01/05 07:32:32;;;;;;;2.20;0.60;;;7.20;78.10;;;;;;4951476;28;20027;-64
2022/01/05 07:34:58;;;;;;;2.90;0.70;;;7.20;77.90;;;;;;4957228;28;20165;-64
2022/01/05 07:37:24;;;;;;;2.70;0.68;;;7.20;78.30;;;;;;4955269;28;20085;-64
2022/01/05 07:39:49;;;;;;;1.60;0.65;;;7.30;78.00;;;;;;4954883;28;20487;-64
2022/01/05 07:42:15;;;;;;;2.85;0.80;;;7.20;77.90;;;;;;4955136;28;20034;-64
2022/01/05 07:44:41;;;;;;;2.92;0.70;;;7.20;78.40;;;;;;4950569;28;20028;-64
2022/01/05 07:47:07;;;;;;;2.63;0.70;;;7.20;77.90;;;;;;4956051;28;20098;-64
2022/01/05 07:49:33;;;;;;;2.92;0.50;;;7.10;77.80;;;;;;4955088;28;20031;-64
2022/01/05 07:51:59;;;;;;;1.80;0.57;;;7.10;78.10;;;;;;4954302;28;20034;-64
2022/01/05 07:54:26;;;;;;;2.88;0.80;;;7.00;78.10;;;;;;4954934;28;20031;-64
2022/01/05 07:56:52;;;;;;;2.70;0.65;;;7.00;79.00;;;;;;4952234;28;20027;-64
2022/01/05 07:59:17;;;;;;;3.17;0.60;;;7.00;77.90;;;;;;4953297;28;20451;-64
2022/01/05 08:01:43;;;;;;;2.53;0.80;;;6.90;78.00;;;;;;4951643;28;20446;-63
2022/01/05 08:04:09;;;;;;;4.70;0.93;;;6.90;78.10;;;;;;4949888;28;20039;-64
2022/01/05 08:06:36;;;;;;;4.30;0.98;;;6.90;78.30;;;;;;4949607;28;20039;-62
2022/01/05 08:09:03;;;;;;;2.75;0.80;;;6.80;78.30;;;;;;4951935;28;20026;-62
2022/01/05 08:11:29;;;;;;;2.47;0.77;;;6.80;78.50;;;;;;4949721;28;20054;-62
2022/01/05 08:13:54;;;;;;;2.47;0.65;;;6.90;78.90;;;;;;4949593;28;20028;-63
2022/01/05 08:16:20;;;;;;;3.25;0.68;;;6.90;78.80;;;;;;4948055;28;20027;-63
2022/01/05 08:18:46;;;;;;;3.67;1.05;;;6.80;78.30;;;;;;4949774;28;20585;-63
2022/01/05 08:21:12;;;;;;;2.20;0.60;;;6.90;78.80;;;;;;4949049;28;20031;-63
2022/01/05 08:23:38;;;;;;;3.08;0.70;;;7.00;79.50;;;;;;4950070;28;20027;-63
2022/01/05 08:26:06;;;;;;;2.65;0.60;;;7.00;78.80;;;;;;4961274;28;20078;-63
2022/01/05 08:28:32;;;;;;;4.28;0.77;;;7.10;78.90;;;;;;4963549;28;20493;-63
2022/01/05 08:30:58;;;;;;;3.30;0.80;;;7.20;78.90;;;;;;4941667;28;20043;-62
2022/01/05 08:33:24;;;;;;;4.15;0.60;;;7.40;79.30;;;;;;4916590;28;20031;-62
2022/01/05 08:35:50;;;;;;;3.03;0.77;;;7.60;79.20;;;;;;4941778;28;20023;-62
2022/01/05 08:38:16;;;;;;;4.57;0.80;;;7.70;78.70;;;;;;4950588;28;20110;-63
2022/01/05 08:40:42;;;;;;;5.32;0.90;;;7.70;78.10;;;;;;4958258;28;20059;-62
2022/01/05 08:43:12;;;;;;;2.53;0.73;;;7.70;77.80;;;;;;4954663;28;20034;-63
2022/01/05 08:45:38;;;;;;;2.72;0.85;;;7.70;77.80;;;;;;4958653;28;20492;-63
2022/01/05 08:48:05;;;;;;;4.38;1.00;;;7.70;77.90;;;;;;4956392;28;20091;-63
2022/01/05 08:50:34;;;;;;;3.53;1.10;;;7.60;77.40;;;;;;4962382;28;20508;-64
2022/01/05 08:53:00;;;;;;;4.43;0.93;;;7.50;77.20;;;;;;4991368;28;20029;-63
2022/01/05 08:55:32;;;;;;;4.53;0.95;;;7.50;77.40;;;;;;4956616;28;20046;-63
2022/01/05 08:57:58;;;;;;;2.95;1.00;;;7.50;78.10;;;;;;4951874;28;20079;-63
2022/01/05 09:00:24;;;;;;;4.72;1.02;;;7.60;77.90;;;;;;4963082;28;20404;-63
2022/01/05 09:02:50;;;;;;;4.55;1.00;;;7.60;77.30;;;;;;4955074;28;20023;-63
2022/01/05 09:05:17;;;;;;;3.75;0.90;;;7.60;77.50;;;;;;4964644;28;20035;-63
2022/01/05 09:07:43;;;;;;;2.65;0.88;;;7.50;76.80;;;;;;4956745;28;20169;-63
2022/01/05 09:10:09;;;;;;;3.22;0.85;;;7.40;76.90;;;;;;4961115;28;20110;-63
2022/01/05 09:12:34;;;;;;;3.47;0.95;;;7.30;76.40;;;;;;4961339;28;20542;-63
2022/01/05 09:15:00;;;;;;;4.35;1.00;;;7.30;77.00;;;;;;4956860;28;20026;-63
2022/01/05 09:17:27;;;;;;;4.78;1.08;;;7.40;77.40;;;;;;4962685;28;20026;-63
2022/01/05 09:19:53;;;;;;;3.35;1.20;;;7.40;77.10;;;;;;4956032;28;20392;-63
2022/01/05 09:22:20;;;;;;;3.72;1.17;;;7.50;77.10;;;;;;4951920;28;20027;-64
2022/01/05 09:24:45;;;;;;;4.22;1.27;;;7.50;76.90;;;;;;4949579;28;20028;-63
2022/01/05 09:27:11;;;;;;;2.75;0.85;;;7.50;76.90;;;;;;4956162;28;20038;-63
2022/01/05 09:29:37;;;;;;;6.70;1.20;;;7.50;77.10;;;;;;4962067;28;20141;-64
2022/01/05 09:32:06;;;;;;;4.15;0.90;;;7.60;76.80;;;;;;4958482;28;20450;-63
2022/01/05 09:34:33;;;;;;;3.55;1.00;;;7.50;76.40;;;;;;4959803;28;20045;-63
2022/01/05 09:37:05;;;;;;;3.42;1.00;;;7.60;76.70;;;;;;4957910;28;20015;-63
2022/01/05 09:42:15;;;;;;;4.70;0.90;;;8.20;77.40;;;;;;4966847;28;20033;-63
2022/01/05 09:44:46;;;;;;;4.20;1.10;;;8.20;75.80;;;;;;4952239;28;20474;-63
2022/01/05 09:47:20;;;;;;;4.72;1.10;;;8.10;75.30;;;;;;4956307;28;20051;-63
2022/01/05 09:49:58;;;;;;;4.32;0.88;;;7.90;74.80;;;;;;4957335;28;20129;-63
2022/01/05 09:52:25;;;;;;;3.55;1.00;;;7.80;75.20;;;;;;4955978;28;20062;-63
2022/01/05 09:54:52;;;;;;;2.70;1.00;;;7.90;76.60;;;;;;4955851;28;20031;-63
2022/01/05 09:57:21;;;;;;;2.85;1.00;;;8.50;77.30;;;;;;4955896;28;20023;-63
2022/01/05 09:59:48;;;;;;;2.97;0.82;;;9.00;76.80;;;;;;4953894;28;20035;-63
2022/01/05 10:02:18;;;;;;;4.15;0.93;;;9.60;75.40;;;;;;4955524;28;20046;-63
2022/01/05 10:04:47;;;;;;;6.82;1.48;;;9.90;74.20;;;;;;4956996;28;20118;-63
2022/01/05 10:07:13;;;;;;;4.50;1.20;;;10.40;73.40;;;;;;4956113;28;20045;-63
2022/01/05 10:09:41;;;;;;;4.00;1.00;;;10.80;72.20;;;;;;4951701;28;20023;-63
2022/01/05 10:12:08;;;;;;;4.78;1.10;;;11.10;71.50;;;;;;4955334;28;20054;-63
2022/01/05 10:14:34;;;;;;;3.92;1.10;;;11.30;69.60;;;;;;4951868;28;20031;-63
2022/01/05 10:17:14;;;;;;;4.53;1.00;;;11.50;69.20;;;;;;4967868;28;20057;-63
2022/01/05 10:19:41;;;;;;;3.83;1.13;;;11.80;69.40;;;;;;4954782;28;20054;-64
2022/01/05 10:22:33;;;;;;;3.38;1.20;;;12.10;68.50;;;;;;4955604;28;20023;-63
2022/01/05 10:25:02;;;;;;;2.30;1.00;;;12.30;68.40;;;;;;4955131;28;20507;-64
2022/01/05 10:27:29;;;;;;;4.00;1.13;;;12.70;68.50;;;;;;4955773;28;20043;-63
2022/01/05 10:29:56;;;;;;;3.67;1.30;;;12.80;66.20;;;;;;4953224;28;20310;-63
2022/01/05 10:32:23;;;;;;;2.72;1.00;;;13.00;64.80;;;;;;4953275;28;20039;-63
2022/01/05 10:35:25;;;;;;;3.92;1.10;;;13.20;65.50;;;;;;4955288;28;20311;-63
2022/01/05 10:38:15;;;;;;;3.65;1.20;;;13.40;65.40;;;;;;4974144;28;20529;-62
2022/01/05 10:40:43;;;;;;;2.33;1.15;;;13.70;66.10;;;;;;4956428;28;20522;-65
2022/01/05 10:43:13;;;;;;;3.63;1.50;;;13.80;65.50;;;;;;4955277;28;20023;-63
2022/01/05 10:45:41;;;;;;;2.08;0.93;;;14.30;63.60;;;;;;4955452;28;20031;-64
2022/01/05 10:48:10;;;;;;;3.30;1.20;;;14.00;62.40;;;;;;4953802;28;20042;-63
2022/01/05 10:50:37;;;;;;;4.20;1.05;;;13.50;61.50;;;;;;4935775;28;20028;-63
2022/01/05 10:53:04;;;;;;;3.13;0.80;;;12.90;62.00;;;;;;4957161;28;20499;-63
2022/01/05 10:55:31;;;;;;;3.25;0.80;;;12.50;63.70;;;;;;4955415;28;20034;-63
2022/01/05 10:58:00;;;;;;;2.00;0.85;;;12.00;63.10;;;;;;4953922;28;20107;-63
2022/01/05 11:00:52;;;;;;;3.13;0.95;;;11.60;64.10;;;;;;4953922;28;20453;-63
2022/01/05 11:03:38;;;;;;;2.58;0.82;;;11.30;65.60;;;;;;4955271;28;20031;-63
2022/01/05 11:06:11;;;;;;;3.38;1.10;;;11.10;66.70;;;;;;4953914;28;20043;-63
2022/01/05 11:08:58;;;;;;;4.75;0.85;;;10.90;66.70;;;;;;4935590;28;20043;-63
2022/01/05 11:11:30;;;;;;;4.28;1.40;;;10.70;67.50;;;;;;4950333;28;20587;-63
2022/01/05 11:13:56;;;;;;;3.08;1.10;;;10.50;67.80;;;;;;4957320;28;20081;-63
2022/01/05 11:16:26;;;;;;;4.50;1.30;;;10.40;67.50;;;;;;4953038;28;20108;-63
2022/01/05 11:19:20;;;;;;;3.20;1.00;;;10.30;68.10;;;;;;4954887;28;20023;-63
2022/01/05 11:22:18;;;;;;;3.85;0.90;;;10.20;68.70;;;;;;4953027;28;20038;-63
2022/01/05 11:24:47;;;;;;;2.63;0.70;;;10.10;69.10;;;;;;5010961;28;20082;-63
2022/01/05 11:27:16;;;;;;;3.88;0.93;;;10.10;68.90;;;;;;5010621;28;20099;-63
2022/01/05 11:29:43;;;;;;;2.65;0.70;;;10.10;69.40;;;;;;5011027;28;20022;-63
2022/01/05 11:32:14;;;;;;;2.80;0.68;;;10.00;69.00;;;;;;4995221;28;20030;-63
2022/01/05 11:34:40;;;;;;;3.75;1.10;;;10.10;69.90;;;;;;5010843;28;20038;-64
2022/01/05 11:37:07;;;;;;;3.25;0.70;;;10.10;69.40;;;;;;5010979;28;20026;-63
2022/01/05 11:39:34;;;;;;;2.95;0.63;;;10.00;69.90;;;;;;5010723;28;20201;-63
2022/01/05 11:42:07;;;;;;;3.92;0.73;;;10.00;69.60;;;;;;5010845;28;20070;-63
2022/01/05 11:44:51;;;;;;;3.53;0.70;;;10.20;70.90;;;;;;5020286;28;20406;-63
2022/01/05 11:47:23;;;;;;;3.53;0.98;;;10.40;71.00;;;;;;5002249;28;20038;-63
2022/01/05 11:49:50;;;;;;;4.03;1.00;;;10.50;69.70;;;;;;5009168;28;20065;-63
2022/01/05 11:52:15;;;;;;;2.17;0.70;;;10.30;69.30;;;;;;5010632;28;20021;-63
2022/01/05 11:55:01;;;;;;;2.45;0.60;;;10.10;68.90;;;;;;5011032;28;20060;-63
2022/01/05 11:57:27;;;;;;;3.50;0.75;;;9.90;69.40;;;;;;5010957;28;20037;-63
2022/01/05 12:00:16;;;;;;;1.73;0.60;;;9.60;69.90;;;;;;4977335;28;22142;-63
2022/01/05 12:02:42;;;;;;;4.45;0.60;;;9.50;70.50;;;;;;4915991;28;20064;-63
2022/01/05 12:05:08;;;;;;;1.55;0.50;;;9.40;70.90;;;;;;4920600;28;20701;-63
2022/01/05 12:07:39;;;;;;;2.20;0.73;;;9.40;71.50;;;;;;4941621;28;20039;-63
2022/01/05 12:10:22;;;;;;;2.55;0.55;;;9.20;71.10;;;;;;4949204;28;20024;-63
2022/01/05 12:13:05;;;;;;;2.58;0.52;;;9.20;71.80;;;;;;4946615;28;20039;-63
2022/01/05 12:15:53;;;;;;;1.80;0.40;;;9.20;72.10;;;;;;4952759;28;20039;-63
2022/01/05 12:18:28;;;;;;;1.30;0.40;;;9.20;72.10;;;;;;4950957;28;20027;-63
2022/01/05 12:20:55;;;;;;;2.53;0.55;;;9.20;72.10;;;;;;4965124;28;20027;-63
2022/01/05 12:23:24;;;;;;;2.33;0.70;;;9.30;72.30;;;;;;4952285;28;20024;-63
2022/01/05 12:26:07;;;;;;;3.40;0.50;;;9.30;72.20;;;;;;4953970;28;20039;-78
2022/01/05 12:28:38;;;;;;;3.70;0.50;;;9.30;72.40;;;;;;4951875;28;20040;-75
2022/01/05 12:31:05;;;;;;;0.85;0.40;;;9.40;72.50;;;;;;4954234;28;20467;-77
2022/01/05 12:33:49;;;;;;;3.42;0.60;;;9.40;72.50;;;;;;4953956;28;20039;-75
2022/01/05 12:36:35;;;;;;;2.55;0.65;;;9.50;72.40;;;;;;4952290;28;20061;-76
2022/01/05 12:39:09;;;;;;;3.08;0.70;;;9.70;72.90;;;;;;4952639;28;20058;-76
2022/01/05 12:41:39;;;;;;;2.85;0.70;;;9.80;72.20;;;;;;4949903;28;20070;-76
2022/01/05 12:44:22;;;;;;;2.42;0.70;;;9.90;71.50;;;;;;4983780;28;20058;-76
2022/01/05 12:46:49;;;;;;;2.17;0.60;;;9.80;71.70;;;;;;4954647;28;20051;-75
2022/01/05 12:49:17;;;;;;;2.72;0.65;;;9.90;71.50;;;;;;4953709;28;20034;-76
2022/01/05 12:51:50;;;;;;;0.75;0.30;;;9.80;71.10;;;;;;4953564;28;20077;-75
2022/01/05 12:54:28;;;;;;;2.55;0.43;;;9.80;70.90;;;;;;4952327;28;20116;-74
2022/01/05 12:57:02;;;;;;;2.70;0.63;;;9.70;71.10;;;;;;4950432;28;20387;-75
2022/01/05 12:59:31;;;;;;;2.65;0.65;;;9.60;71.30;;;;;;4950573;28;20073;-77
2022/01/05 13:02:02;;;;;;;3.67;0.88;;;9.70;71.50;;;;;;4979783;28;20023;-77
2022/01/05 13:04:28;;;;;;;3.70;0.70;;;9.70;71.20;;;;;;4956587;28;20038;-76
2022/01/05 13:07:02;;;;;;;2.28;0.63;;;9.70;71.40;;;;;;4963042;28;20130;-77
2022/01/05 13:09:42;;;;;;;3.35;0.75;;;9.70;71.20;;;;;;4962652;28;20433;-77
2022/01/05 13:12:10;;;;;;;2.17;0.77;;;9.60;71.60;;;;;;4956760;28;20515;-77
2022/01/05 13:14:38;;;;;;;3.20;1.02;;;9.60;71.50;;;;;;4964849;28;20378;-77